createdAt,value
2018-05-25T00:00:59.655Z,19.97
2018-05-25T00:01:59.908Z,19.97
2018-05-25T00:02:59.811Z,19.96
2018-05-25T00:03:59.876Z,19.97
2018-05-25T00:04:59.865Z,19.96
2018-05-25T00:06:00.109Z,19.95
2018-05-25T00:06:59.624Z,19.96
2018-05-25T00:07:59.890Z,19.96
2018-05-25T00:08:59.651Z,19.96
2018-05-25T00:09:59.638Z,19.96
2018-05-25T00:10:59.915Z,19.96
2018-05-25T00:11:59.829Z,19.95
2018-05-25T00:12:59.722Z,19.95
2018-05-25T00:13:59.760Z,19.96
2018-05-25T00:14:59.865Z,19.96
2018-05-25T00:15:59.545Z,19.95
2018-05-25T00:16:59.813Z,19.96
2018-05-25T00:17:59.786Z,19.95
2018-05-25T00:18:59.694Z,19.95
2018-05-25T00:19:59.824Z,19.96
2018-05-25T00:20:59.779Z,19.95
2018-05-25T00:21:59.765Z,19.95
2018-05-25T00:22:59.784Z,19.96
2018-05-25T00:23:59.715Z,19.95
2018-05-25T00:24:59.635Z,19.95
2018-05-25T00:25:59.799Z,19.95
2018-05-25T00:26:59.728Z,19.94
2018-05-25T00:27:59.690Z,19.95
2018-05-25T00:28:59.697Z,19.95
2018-05-25T00:29:59.704Z,19.94
2018-05-25T00:30:59.743Z,19.94
2018-05-25T00:31:59.856Z,19.95
2018-05-25T00:32:59.922Z,19.95
2018-05-25T00:33:59.666Z,19.94
2018-05-25T00:34:59.796Z,19.95
2018-05-25T00:35:59.767Z,19.95
2018-05-25T00:36:59.720Z,19.95
2018-05-25T00:37:59.856Z,19.95
2018-05-25T00:38:59.723Z,19.95
2018-05-25T00:39:59.761Z,19.94
2018-05-25T00:40:59.814Z,19.94
2018-05-25T00:41:59.897Z,19.94
2018-05-25T00:42:59.645Z,19.94
2018-05-25T00:43:59.801Z,19.94
2018-05-25T00:44:59.737Z,19.94
2018-05-25T00:45:59.672Z,19.93
2018-05-25T00:46:59.890Z,19.94
2018-05-25T00:47:59.861Z,19.94
2018-05-25T00:48:59.657Z,19.94
2018-05-25T00:49:59.742Z,19.93
2018-05-25T00:50:59.836Z,19.93
2018-05-25T00:51:59.660Z,19.94
2018-05-25T00:52:59.806Z,19.94
2018-05-25T00:53:59.710Z,19.94
2018-05-25T00:54:59.818Z,19.94
2018-05-25T00:56:00.033Z,19.94
2018-05-25T00:56:59.906Z,19.93
2018-05-25T00:57:59.737Z,19.93
2018-05-25T00:58:59.654Z,19.93
2018-05-25T00:59:59.714Z,19.93
2018-05-25T01:00:59.839Z,19.93
2018-05-25T01:01:59.744Z,19.93
2018-05-25T01:02:59.631Z,19.94
2018-05-25T01:03:59.763Z,19.94
2018-05-25T01:04:59.741Z,19.94
2018-05-25T01:05:59.783Z,19.93
2018-05-25T01:06:59.737Z,19.93
2018-05-25T01:07:59.685Z,19.92
2018-05-25T01:08:59.785Z,19.92
2018-05-25T01:09:59.825Z,19.93
2018-05-25T01:10:59.875Z,19.93
2018-05-25T01:11:59.822Z,19.92
2018-05-25T01:12:59.779Z,19.92
2018-05-25T01:13:59.706Z,19.93
2018-05-25T01:14:59.896Z,19.92
2018-05-25T01:15:59.911Z,19.92
2018-05-25T01:16:59.766Z,19.92
2018-05-25T01:17:59.775Z,19.92
2018-05-25T01:18:59.692Z,19.92
2018-05-25T01:19:59.734Z,19.92
2018-05-25T01:20:59.639Z,19.91
2018-05-25T01:21:59.709Z,19.93
2018-05-25T01:22:59.692Z,19.92
2018-05-25T01:23:59.715Z,19.91
2018-05-25T01:24:59.910Z,19.91
2018-05-25T01:25:59.705Z,19.91
2018-05-25T01:26:59.841Z,19.91
2018-05-25T01:27:59.831Z,19.92
2018-05-25T01:28:59.830Z,19.91
2018-05-25T01:29:59.764Z,19.91
2018-05-25T01:30:59.619Z,19.91
2018-05-25T01:31:59.789Z,19.92
2018-05-25T01:32:59.699Z,19.92
2018-05-25T01:33:59.710Z,19.91
2018-05-25T01:34:59.747Z,19.91
2018-05-25T01:35:59.723Z,19.9
2018-05-25T01:36:59.866Z,19.92
2018-05-25T01:37:59.871Z,19.92
2018-05-25T01:38:59.839Z,19.91
2018-05-25T01:39:59.672Z,19.92
2018-05-25T01:40:59.916Z,19.91
2018-05-25T01:41:59.639Z,19.92
2018-05-25T01:42:59.813Z,19.91
2018-05-25T01:43:59.799Z,19.91
2018-05-25T01:44:59.834Z,19.91
2018-05-25T01:45:59.771Z,19.89
2018-05-25T01:46:59.960Z,19.9
2018-05-25T01:47:59.697Z,19.9
2018-05-25T01:48:59.837Z,19.91
2018-05-25T01:49:59.749Z,19.91
2018-05-25T01:50:59.675Z,19.9
2018-05-25T01:51:59.798Z,19.9
2018-05-25T01:52:59.546Z,19.91
2018-05-25T01:53:59.747Z,19.89
2018-05-25T01:54:59.828Z,19.9
2018-05-25T01:55:59.795Z,19.9
2018-05-25T01:56:59.796Z,19.9
2018-05-25T01:57:59.846Z,19.9
2018-05-25T01:58:59.891Z,19.9
2018-05-25T01:59:59.734Z,19.89
2018-05-25T02:00:59.689Z,19.89
2018-05-25T02:01:59.644Z,19.89
2018-05-25T02:02:59.621Z,19.9
2018-05-25T02:03:59.774Z,19.9
2018-05-25T02:04:59.912Z,19.91
2018-05-25T02:05:59.790Z,19.89
2018-05-25T02:06:59.851Z,19.89
2018-05-25T02:07:59.621Z,19.9
2018-05-25T02:08:59.801Z,19.91
2018-05-25T02:09:59.885Z,19.9
2018-05-25T02:10:59.711Z,19.9
2018-05-25T02:11:59.745Z,19.89
2018-05-25T02:12:59.693Z,19.89
2018-05-25T02:13:59.912Z,19.91
2018-05-25T02:14:59.777Z,19.9
2018-05-25T02:15:59.760Z,19.91
2018-05-25T02:16:59.861Z,19.9
2018-05-25T02:17:59.661Z,19.9
2018-05-25T02:18:59.788Z,19.9
2018-05-25T02:19:59.668Z,19.9
2018-05-25T02:21:00.183Z,19.9
2018-05-25T02:21:59.755Z,19.89
2018-05-25T02:22:59.676Z,19.9
2018-05-25T02:23:59.706Z,19.9
2018-05-25T02:24:59.704Z,19.9
2018-05-25T02:25:59.726Z,19.9
2018-05-25T02:26:59.685Z,19.9
2018-05-25T02:27:59.674Z,19.89
2018-05-25T02:28:59.632Z,19.91
2018-05-25T02:29:59.612Z,19.89
2018-05-25T02:30:59.620Z,19.89
2018-05-25T02:31:59.817Z,19.9
2018-05-25T02:32:59.815Z,19.89
2018-05-25T02:33:59.802Z,19.89
2018-05-25T02:34:59.812Z,19.9
2018-05-25T02:35:59.851Z,19.88
2018-05-25T02:36:59.708Z,19.89
2018-05-25T02:37:59.833Z,19.89
2018-05-25T02:38:59.611Z,19.89
2018-05-25T02:39:59.602Z,19.89
2018-05-25T02:40:59.771Z,19.89
2018-05-25T02:41:59.739Z,19.89
2018-05-25T02:42:59.652Z,19.89
2018-05-25T02:43:59.781Z,19.89
2018-05-25T02:44:59.827Z,19.89
2018-05-25T02:45:59.864Z,19.9
2018-05-25T02:46:59.725Z,19.9
2018-05-25T02:47:59.818Z,19.89
2018-05-25T02:48:59.643Z,19.89
2018-05-25T02:49:59.792Z,19.89
2018-05-25T02:51:21.593Z,19.88
2018-05-25T02:51:59.789Z,19.89
2018-05-25T02:52:59.745Z,19.9
2018-05-25T02:53:59.621Z,19.89
2018-05-25T02:54:59.715Z,19.89
2018-05-25T02:55:59.551Z,19.89
2018-05-25T02:56:59.720Z,19.88
2018-05-25T02:57:59.595Z,19.88
2018-05-25T02:58:59.730Z,19.89
2018-05-25T02:59:59.889Z,19.88
2018-05-25T03:01:00.007Z,19.89
2018-05-25T03:01:59.808Z,19.9
2018-05-25T03:02:59.615Z,19.88
2018-05-25T03:03:59.694Z,19.89
2018-05-25T03:04:59.592Z,19.88
2018-05-25T03:05:59.706Z,19.89
2018-05-25T03:06:59.638Z,19.89
2018-05-25T03:07:59.610Z,19.88
2018-05-25T03:08:59.607Z,19.89
2018-05-25T03:09:59.722Z,19.89
2018-05-25T03:11:00.014Z,19.89
2018-05-25T03:11:59.717Z,19.88
2018-05-25T03:12:59.630Z,19.89
2018-05-25T03:13:59.828Z,19.88
2018-05-25T03:14:59.672Z,19.89
2018-05-25T03:15:59.802Z,19.88
2018-05-25T03:16:59.664Z,19.89
2018-05-25T03:17:59.916Z,19.88
2018-05-25T03:18:59.700Z,19.89
2018-05-25T03:19:59.637Z,19.88
2018-05-25T03:20:59.667Z,19.88
2018-05-25T03:21:59.773Z,19.89
2018-05-25T03:22:59.778Z,19.88
2018-05-25T03:23:59.831Z,19.88
2018-05-25T03:24:59.649Z,19.89
2018-05-25T03:25:59.645Z,19.88
2018-05-25T03:26:59.767Z,19.87
2018-05-25T03:27:59.805Z,19.88
2018-05-25T03:28:59.735Z,19.88
2018-05-25T03:29:59.670Z,19.88
2018-05-25T03:30:59.696Z,19.88
2018-05-25T03:31:59.804Z,19.88
2018-05-25T03:32:59.706Z,19.87
2018-05-25T03:33:59.749Z,19.88
2018-05-25T03:34:59.637Z,19.88
2018-05-25T03:35:59.633Z,19.88
2018-05-25T03:36:59.607Z,19.87
2018-05-25T03:37:59.799Z,19.88
2018-05-25T03:38:59.683Z,19.87
2018-05-25T03:39:59.709Z,19.88
2018-05-25T03:40:59.632Z,19.88
2018-05-25T03:41:59.749Z,19.88
2018-05-25T03:42:59.682Z,19.88
2018-05-25T03:43:59.946Z,19.87
2018-05-25T03:44:59.618Z,19.87
2018-05-25T03:45:59.820Z,19.88
2018-05-25T03:46:59.715Z,19.87
2018-05-25T03:47:59.678Z,19.87
2018-05-25T03:48:59.681Z,19.87
2018-05-25T03:49:59.674Z,19.87
2018-05-25T03:50:59.762Z,19.86
2018-05-25T03:51:59.600Z,19.88
2018-05-25T03:52:59.529Z,19.87
2018-05-25T03:53:59.598Z,19.87
2018-05-25T03:54:59.713Z,19.88
2018-05-25T03:55:59.754Z,19.87
2018-05-25T03:56:59.656Z,19.87
2018-05-25T03:57:59.580Z,19.87
2018-05-25T03:58:59.769Z,19.87
2018-05-25T03:59:59.779Z,19.87
2018-05-25T04:00:59.726Z,19.87
2018-05-25T04:01:59.776Z,19.87
2018-05-25T04:02:59.589Z,19.86
2018-05-25T04:03:59.579Z,19.87
2018-05-25T04:04:59.730Z,19.86
2018-05-25T04:05:59.628Z,19.87
2018-05-25T04:06:59.798Z,19.87
2018-05-25T04:07:59.551Z,19.86
2018-05-25T04:08:59.646Z,19.88
2018-05-25T04:09:59.996Z,19.87
2018-05-25T04:10:59.778Z,19.87
2018-05-25T04:11:59.562Z,19.86
2018-05-25T04:12:59.583Z,19.87
2018-05-25T04:13:59.835Z,19.87
2018-05-25T04:14:59.592Z,19.86
2018-05-25T04:15:59.818Z,19.87
2018-05-25T04:16:59.723Z,19.86
2018-05-25T04:17:59.796Z,19.87
2018-05-25T04:18:59.749Z,19.87
2018-05-25T04:19:59.758Z,19.87
2018-05-25T04:20:59.642Z,19.87
2018-05-25T04:21:59.567Z,19.86
2018-05-25T04:22:59.788Z,19.87
2018-05-25T04:23:59.659Z,19.87
2018-05-25T04:24:59.632Z,19.87
2018-05-25T04:25:59.614Z,19.86
2018-05-25T04:26:59.777Z,19.86
2018-05-25T04:27:59.829Z,19.86
2018-05-25T04:28:59.762Z,19.87
2018-05-25T04:29:59.744Z,19.86
2018-05-25T04:30:59.703Z,19.86
2018-05-25T04:31:59.753Z,19.87
2018-05-25T04:32:59.668Z,19.86
2018-05-25T04:33:59.715Z,19.86
2018-05-25T04:34:59.566Z,19.87
2018-05-25T04:35:59.787Z,19.85
2018-05-25T04:36:59.790Z,19.87
2018-05-25T04:37:59.761Z,19.86
2018-05-25T04:38:59.667Z,19.86
2018-05-25T04:39:59.612Z,19.86
2018-05-25T04:40:59.662Z,19.87
2018-05-25T04:41:59.619Z,19.86
2018-05-25T04:42:59.864Z,19.86
2018-05-25T04:43:59.739Z,19.87
2018-05-25T04:44:59.701Z,19.85
2018-05-25T04:45:59.766Z,19.86
2018-05-25T04:46:59.681Z,19.86
2018-05-25T04:47:59.962Z,19.86
2018-05-25T04:48:59.728Z,19.86
2018-05-25T04:49:59.741Z,19.87
2018-05-25T04:50:59.755Z,19.86
2018-05-25T04:51:59.770Z,19.86
2018-05-25T04:52:59.713Z,19.87
2018-05-25T04:53:59.693Z,19.85
2018-05-25T04:54:59.846Z,19.87
2018-05-25T04:55:59.898Z,19.87
2018-05-25T04:56:59.571Z,19.87
2018-05-25T04:57:59.551Z,19.87
2018-05-25T04:58:59.691Z,19.87
2018-05-25T04:59:59.583Z,19.87
2018-05-25T05:00:59.735Z,19.87
2018-05-25T05:01:59.653Z,19.87
2018-05-25T05:02:59.557Z,19.86
2018-05-25T05:03:59.699Z,19.86
2018-05-25T05:04:59.614Z,19.87
2018-05-25T05:05:59.623Z,19.87
2018-05-25T05:06:59.546Z,19.86
2018-05-25T05:07:59.640Z,19.86
2018-05-25T05:08:59.698Z,19.86
2018-05-25T05:09:59.751Z,19.86
2018-05-25T05:10:59.805Z,19.87
2018-05-25T05:11:59.760Z,19.86
2018-05-25T05:12:59.649Z,19.86
2018-05-25T05:13:59.571Z,19.87
2018-05-25T05:14:59.711Z,19.86
2018-05-25T05:15:59.567Z,19.86
2018-05-25T05:16:59.740Z,19.87
2018-05-25T05:17:59.666Z,19.87
2018-05-25T05:18:59.868Z,19.87
2018-05-25T05:19:59.782Z,19.87
2018-05-25T05:20:59.786Z,19.86
2018-05-25T05:21:59.822Z,19.87
2018-05-25T05:22:59.772Z,19.87
2018-05-25T05:23:59.607Z,19.86
2018-05-25T05:24:59.625Z,19.87
2018-05-25T05:25:59.808Z,19.87
2018-05-25T05:26:59.838Z,19.86
2018-05-25T05:27:59.632Z,19.87
2018-05-25T05:28:59.661Z,19.87
2018-05-25T05:29:59.825Z,19.86
2018-05-25T05:30:59.756Z,19.87
2018-05-25T05:31:59.816Z,19.87
2018-05-25T05:32:59.628Z,19.87
2018-05-25T05:33:59.679Z,19.87
2018-05-25T05:34:59.745Z,19.87
2018-05-25T05:35:59.566Z,19.87
2018-05-25T05:36:59.601Z,19.87
2018-05-25T05:37:59.609Z,19.87
2018-05-25T05:38:59.599Z,19.87
2018-05-25T05:39:59.644Z,19.87
2018-05-25T05:40:59.641Z,19.87
2018-05-25T05:41:59.663Z,19.87
2018-05-25T05:42:59.545Z,19.87
2018-05-25T05:43:59.792Z,19.87
2018-05-25T05:44:59.705Z,19.87
2018-05-25T05:45:59.712Z,19.87
2018-05-25T05:46:59.668Z,19.87
2018-05-25T05:47:59.623Z,19.86
2018-05-25T05:48:59.734Z,19.87
2018-05-25T05:49:59.685Z,19.87
2018-05-25T05:50:59.672Z,19.86
2018-05-25T05:51:59.590Z,19.86
2018-05-25T05:52:59.637Z,19.88
2018-05-25T05:53:59.602Z,19.86
2018-05-25T05:54:59.636Z,19.87
2018-05-25T05:55:59.643Z,19.87
2018-05-25T05:56:59.717Z,19.87
2018-05-25T05:57:59.713Z,19.87
2018-05-25T05:58:59.671Z,19.87
2018-05-25T05:59:59.651Z,19.86
2018-05-25T06:00:59.565Z,19.87
2018-05-25T06:01:59.719Z,19.88
2018-05-25T06:02:59.777Z,19.87
2018-05-25T06:03:59.569Z,19.87
2018-05-25T06:04:59.737Z,19.87
2018-05-25T06:05:59.620Z,19.87
2018-05-25T06:06:59.796Z,19.86
2018-05-25T06:07:59.764Z,19.88
2018-05-25T06:08:59.520Z,19.87
2018-05-25T06:09:59.522Z,19.87
2018-05-25T06:10:59.635Z,19.87
2018-05-25T06:11:59.565Z,19.87
2018-05-25T06:12:59.778Z,19.87
2018-05-25T06:13:59.548Z,19.87
2018-05-25T06:14:59.948Z,19.87
2018-05-25T06:15:59.619Z,19.87
2018-05-25T06:16:59.565Z,19.87
2018-05-25T06:17:59.627Z,19.86
2018-05-25T06:18:59.535Z,19.87
2018-05-25T06:19:59.594Z,19.87
2018-05-25T06:20:59.601Z,19.86
2018-05-25T06:21:59.667Z,19.88
2018-05-25T06:22:59.708Z,19.87
2018-05-25T06:23:59.629Z,19.87
2018-05-25T06:24:59.581Z,19.88
2018-05-25T06:25:59.644Z,19.87
2018-05-25T06:26:59.583Z,19.87
2018-05-25T06:27:59.523Z,19.87
2018-05-25T06:28:59.537Z,19.88
2018-05-25T06:29:59.574Z,19.87
2018-05-25T06:30:59.681Z,19.86
2018-05-25T06:31:59.681Z,19.87
2018-05-25T06:32:59.753Z,19.87
2018-05-25T06:33:59.760Z,19.87
2018-05-25T06:35:00.601Z,19.88
2018-05-25T06:35:59.641Z,19.87
2018-05-25T06:36:59.531Z,19.87
2018-05-25T06:37:59.715Z,19.87
2018-05-25T06:38:59.658Z,19.87
2018-05-25T06:39:59.588Z,19.88
2018-05-25T06:40:59.821Z,19.88
2018-05-25T06:41:59.637Z,19.87
2018-05-25T06:42:59.783Z,19.86
2018-05-25T06:43:59.656Z,19.88
2018-05-25T06:44:59.675Z,19.87
2018-05-25T06:45:59.553Z,19.87
2018-05-25T06:46:59.817Z,19.88
2018-05-25T06:47:59.777Z,19.87
2018-05-25T06:48:59.744Z,19.87
2018-05-25T06:49:59.794Z,19.87
2018-05-25T06:50:59.708Z,19.87
2018-05-25T06:51:59.777Z,19.87
2018-05-25T06:52:59.693Z,19.88
2018-05-25T06:53:59.752Z,19.88
2018-05-25T06:54:59.527Z,19.88
2018-05-25T06:55:59.664Z,19.87
2018-05-25T06:56:59.570Z,19.87
2018-05-25T06:57:59.616Z,19.87
2018-05-25T06:58:59.674Z,19.87
2018-05-25T06:59:59.593Z,19.88
2018-05-25T07:00:59.561Z,19.88
2018-05-25T07:01:59.634Z,19.88
2018-05-25T07:02:59.637Z,19.87
2018-05-25T07:03:59.486Z,19.88
2018-05-25T07:04:59.689Z,19.88
2018-05-25T07:05:59.603Z,19.87
2018-05-25T07:06:59.632Z,19.88
2018-05-25T07:07:59.675Z,19.87
2018-05-25T07:08:59.716Z,19.87
2018-05-25T07:09:59.499Z,19.87
2018-05-25T07:10:59.665Z,19.87
2018-05-25T07:11:59.695Z,19.87
2018-05-25T07:12:59.454Z,19.88
2018-05-25T07:13:59.591Z,19.87
2018-05-25T07:14:59.544Z,19.87
2018-05-25T07:15:59.610Z,19.88
2018-05-25T07:16:59.754Z,19.88
2018-05-25T07:17:59.581Z,19.88
2018-05-25T07:18:59.569Z,19.88
2018-05-25T07:19:59.695Z,19.88
2018-05-25T07:20:59.663Z,19.88
2018-05-25T07:21:59.564Z,19.88
2018-05-25T07:22:59.622Z,19.88
2018-05-25T07:23:59.621Z,19.88
2018-05-25T07:24:59.656Z,19.89
2018-05-25T07:25:59.751Z,19.88
2018-05-25T07:26:59.572Z,19.87
2018-05-25T07:27:59.520Z,19.88
2018-05-25T07:28:59.519Z,19.88
2018-05-25T07:29:59.647Z,19.88
2018-05-25T07:31:21.002Z,19.88
2018-05-25T07:31:59.534Z,19.89
2018-05-25T07:32:59.689Z,19.88
2018-05-25T07:33:59.612Z,19.88
2018-05-25T07:34:59.511Z,19.88
2018-05-25T07:35:59.524Z,19.87
2018-05-25T07:36:59.759Z,19.88
2018-05-25T07:37:59.732Z,19.88
2018-05-25T07:38:59.721Z,19.88
2018-05-25T07:39:59.608Z,19.88
2018-05-25T07:40:59.655Z,19.88
2018-05-25T07:41:59.654Z,19.88
2018-05-25T07:42:59.678Z,19.88
2018-05-25T07:43:59.630Z,19.88
2018-05-25T07:44:59.850Z,19.89
2018-05-25T07:45:59.663Z,19.88
2018-05-25T07:46:59.657Z,19.89
2018-05-25T07:47:59.506Z,19.88
2018-05-25T07:48:59.757Z,19.88
2018-05-25T07:49:59.609Z,19.87
2018-05-25T07:50:59.532Z,19.87
2018-05-25T07:51:59.707Z,19.88
2018-05-25T07:52:59.618Z,19.89
2018-05-25T07:53:59.530Z,19.88
2018-05-25T07:54:59.811Z,19.89
2018-05-25T07:55:59.738Z,19.88
2018-05-25T07:56:59.504Z,19.88
2018-05-25T07:57:59.749Z,19.89
2018-05-25T07:58:59.656Z,19.89
2018-05-25T07:59:59.668Z,19.88
2018-05-25T08:00:59.600Z,19.88
2018-05-25T08:01:59.666Z,19.88
2018-05-25T08:02:59.642Z,19.88
2018-05-25T08:03:59.758Z,19.88
2018-05-25T08:04:59.541Z,19.88
2018-05-25T08:05:59.628Z,19.87
2018-05-25T08:06:59.592Z,19.88
2018-05-25T08:07:59.617Z,19.88
2018-05-25T08:08:59.775Z,19.88
2018-05-25T08:09:59.563Z,19.88
2018-05-25T08:10:59.474Z,19.88
2018-05-25T08:11:59.831Z,19.88
2018-05-25T08:12:59.554Z,19.88
2018-05-25T08:13:59.888Z,19.88
2018-05-25T08:14:59.673Z,19.88
2018-05-25T08:15:59.548Z,19.88
2018-05-25T08:16:59.841Z,19.88
2018-05-25T08:17:59.619Z,19.88
2018-05-25T08:18:59.566Z,19.88
2018-05-25T08:19:59.472Z,19.88
2018-05-25T08:20:59.631Z,19.88
2018-05-25T08:21:59.802Z,19.88
2018-05-25T08:22:59.694Z,19.88
2018-05-25T08:23:59.642Z,19.87
2018-05-25T08:24:59.745Z,19.88
2018-05-25T08:25:59.660Z,19.88
2018-05-25T08:26:59.769Z,19.88
2018-05-25T08:27:59.708Z,19.88
2018-05-25T08:28:59.523Z,19.88
2018-05-25T08:29:59.607Z,19.88
2018-05-25T08:30:59.676Z,19.87
2018-05-25T08:31:59.610Z,19.88
2018-05-25T08:32:59.592Z,19.87
2018-05-25T08:33:59.600Z,19.88
2018-05-25T08:34:59.632Z,19.88
2018-05-25T08:35:59.773Z,19.88
2018-05-25T08:36:59.636Z,19.89
2018-05-25T08:37:59.533Z,19.89
2018-05-25T08:38:59.676Z,19.88
2018-05-25T08:39:59.698Z,19.88
2018-05-25T08:40:59.557Z,19.89
2018-05-25T08:41:59.737Z,19.88
2018-05-25T08:42:59.626Z,19.88
2018-05-25T08:43:59.553Z,19.87
2018-05-25T08:44:59.600Z,19.87
2018-05-25T08:45:59.876Z,19.88
2018-05-25T08:46:59.555Z,19.89
2018-05-25T08:47:59.687Z,19.88
2018-05-25T08:48:59.708Z,19.88
2018-05-25T08:49:59.417Z,19.88
2018-05-25T08:50:59.665Z,19.88
2018-05-25T08:51:59.526Z,19.88
2018-05-25T08:52:59.704Z,19.88
2018-05-25T08:53:59.599Z,19.89
2018-05-25T08:54:59.555Z,19.88
2018-05-25T08:55:59.636Z,19.88
2018-05-25T08:56:59.543Z,19.88
2018-05-25T08:57:59.705Z,19.88
2018-05-25T08:58:59.533Z,19.88
2018-05-25T08:59:59.639Z,19.88
2018-05-25T09:00:59.649Z,19.88
2018-05-25T09:01:59.757Z,19.88
2018-05-25T09:02:59.657Z,19.88
2018-05-25T09:03:59.564Z,19.88
2018-05-25T09:04:59.515Z,19.89
2018-05-25T09:05:59.700Z,19.88
2018-05-25T09:06:59.470Z,19.88
2018-05-25T09:07:59.445Z,19.88
2018-05-25T09:08:59.835Z,19.88
2018-05-25T09:09:59.575Z,19.88
2018-05-25T09:10:59.616Z,19.88
2018-05-25T09:11:59.633Z,19.88
2018-05-25T09:12:59.550Z,19.88
2018-05-25T09:13:59.670Z,19.88
2018-05-25T09:14:59.549Z,19.86
2018-05-25T09:15:59.694Z,19.92
2018-05-25T09:16:59.627Z,19.93
2018-05-25T09:17:59.668Z,19.94
2018-05-25T09:18:59.717Z,19.99
2018-05-25T09:19:59.607Z,19.99
2018-05-25T09:20:59.641Z,19.98
2018-05-25T09:21:59.640Z,20
2018-05-25T09:22:59.648Z,20.01
2018-05-25T09:23:59.673Z,20
2018-05-25T09:24:59.635Z,20.02
2018-05-25T09:25:59.596Z,20.02
2018-05-25T09:26:59.514Z,20.02
2018-05-25T09:27:59.639Z,20.04
2018-05-25T09:28:59.739Z,20.07
2018-05-25T09:29:59.628Z,20.08
2018-05-25T09:30:59.583Z,20.09
2018-05-25T09:31:59.699Z,20.1
2018-05-25T09:32:59.572Z,20.1
2018-05-25T09:33:59.723Z,20.14
2018-05-25T09:34:59.472Z,20.16
2018-05-25T09:35:59.756Z,20.15
2018-05-25T09:36:59.716Z,20.19
2018-05-25T09:37:59.816Z,20.19
2018-05-25T09:38:59.622Z,20.19
2018-05-25T09:39:59.443Z,20.21
2018-05-25T09:40:59.547Z,20.21
2018-05-25T09:41:59.476Z,20.21
2018-05-25T09:42:59.672Z,20.23
2018-05-25T09:43:59.485Z,20.23
2018-05-25T09:44:59.663Z,20.22
2018-05-25T09:45:59.613Z,20.22
2018-05-25T09:46:59.455Z,20.23
2018-05-25T09:47:59.584Z,20.24
2018-05-25T09:48:59.593Z,20.25
2018-05-25T09:49:59.612Z,20.24
2018-05-25T09:50:59.564Z,20.25
2018-05-25T09:51:59.755Z,20.25
2018-05-25T09:52:59.480Z,20.26
2018-05-25T09:53:59.679Z,20.25
2018-05-25T09:54:59.724Z,20.26
2018-05-25T09:55:59.498Z,20.28
2018-05-25T09:56:59.690Z,20.3
2018-05-25T09:57:59.658Z,20.29
2018-05-25T09:58:59.596Z,20.3
2018-05-25T09:59:59.674Z,20.29
2018-05-25T10:00:59.720Z,20.3
2018-05-25T10:01:59.468Z,20.3
2018-05-25T10:02:59.601Z,20.28
2018-05-25T10:03:59.446Z,20.29
2018-05-25T10:05:00.440Z,20.29
2018-05-25T10:05:59.672Z,20.29
2018-05-25T10:06:59.490Z,20.31
2018-05-25T10:07:59.662Z,20.34
2018-05-25T10:08:59.626Z,20.39
2018-05-25T10:09:59.526Z,20.35
2018-05-25T10:10:59.599Z,20.35
2018-05-25T10:11:59.696Z,20.33
2018-05-25T10:12:59.471Z,20.31
2018-05-25T10:13:59.642Z,20.3
2018-05-25T10:14:59.461Z,20.3
2018-05-25T10:15:59.561Z,20.3
2018-05-25T10:16:59.811Z,20.28
2018-05-25T10:17:59.752Z,20.27
2018-05-25T10:18:59.554Z,20.26
2018-05-25T10:19:59.679Z,20.26
2018-05-25T10:20:59.603Z,20.25
2018-05-25T10:21:59.782Z,20.26
2018-05-25T10:22:59.564Z,20.24
2018-05-25T10:23:59.708Z,20.23
2018-05-25T10:24:59.797Z,20.24
2018-05-25T10:25:59.641Z,20.24
2018-05-25T10:26:59.718Z,20.24
2018-05-25T10:27:59.655Z,20.23
2018-05-25T10:28:59.551Z,20.23
2018-05-25T10:29:59.624Z,20.22
2018-05-25T10:30:59.501Z,20.21
2018-05-25T10:31:59.669Z,20.21
2018-05-25T10:32:59.687Z,20.21
2018-05-25T10:33:59.478Z,20.2
2018-05-25T10:34:59.798Z,20.2
2018-05-25T10:35:59.719Z,20.19
2018-05-25T10:36:59.477Z,20.21
2018-05-25T10:37:59.570Z,20.2
2018-05-25T10:38:59.549Z,20.19
2018-05-25T10:39:59.395Z,20.2
2018-05-25T10:40:59.480Z,20.19
2018-05-25T10:41:59.514Z,20.19
2018-05-25T10:42:59.620Z,20.19
2018-05-25T10:43:59.662Z,20.18
2018-05-25T10:44:59.667Z,20.16
2018-05-25T10:45:59.581Z,20.17
2018-05-25T10:46:59.508Z,20.15
2018-05-25T10:47:59.530Z,20.15
2018-05-25T10:48:59.455Z,20.15
2018-05-25T10:49:59.644Z,20.17
2018-05-25T10:50:59.626Z,20.16
2018-05-25T10:51:59.632Z,20.17
2018-05-25T10:52:59.768Z,20.19
2018-05-25T10:53:59.502Z,20.18
2018-05-25T10:54:59.671Z,20.19
2018-05-25T10:55:59.729Z,20.2
2018-05-25T10:56:59.542Z,20.2
2018-05-25T10:57:59.705Z,20.22
2018-05-25T10:58:59.632Z,20.26
2018-05-25T10:59:59.669Z,20.26
2018-05-25T11:00:59.605Z,20.25
2018-05-25T11:01:59.619Z,20.25
2018-05-25T11:02:59.693Z,20.24
2018-05-25T11:03:59.428Z,20.25
2018-05-25T11:04:59.597Z,20.25
2018-05-25T11:05:59.635Z,20.22
2018-05-25T11:06:59.463Z,20.23
2018-05-25T11:07:59.635Z,20.23
2018-05-25T11:08:59.510Z,20.21
2018-05-25T11:09:59.724Z,20.22
2018-05-25T11:10:59.468Z,20.23
2018-05-25T11:11:59.479Z,20.2
2018-05-25T11:12:59.406Z,20.21
2018-05-25T11:13:59.603Z,20.2
2018-05-25T11:14:59.543Z,20.17
2018-05-25T11:15:59.459Z,20.18
2018-05-25T11:16:59.622Z,20.16
2018-05-25T11:17:59.690Z,20.16
2018-05-25T11:18:59.654Z,20.16
2018-05-25T11:19:59.616Z,20.15
2018-05-25T11:20:59.576Z,20.16
2018-05-25T11:21:59.797Z,20.16
2018-05-25T11:22:59.517Z,20.16
2018-05-25T11:23:59.489Z,20.13
2018-05-25T11:24:59.515Z,20.15
2018-05-25T11:25:59.484Z,20.14
2018-05-25T11:26:59.805Z,20.13
2018-05-25T11:27:59.547Z,20.14
2018-05-25T11:28:59.672Z,20.13
2018-05-25T11:29:59.647Z,20.13
2018-05-25T11:30:59.516Z,20.14
2018-05-25T11:31:59.525Z,20.13
2018-05-25T11:32:59.704Z,20.12
2018-05-25T11:33:59.428Z,20.12
2018-05-25T11:34:59.693Z,20.12
2018-05-25T11:35:59.777Z,20.1
2018-05-25T11:36:59.685Z,20.11
2018-05-25T11:37:59.707Z,20.11
2018-05-25T11:38:59.626Z,20.1
2018-05-25T11:39:59.722Z,20.11
2018-05-25T11:40:59.843Z,20.11
2018-05-25T11:41:59.643Z,20.1
2018-05-25T11:42:59.676Z,20.11
2018-05-25T11:43:59.668Z,20.11
2018-05-25T11:44:59.701Z,20.11
2018-05-25T11:45:59.574Z,20.1
2018-05-25T11:46:59.613Z,20.11
2018-05-25T11:47:59.898Z,20.09
2018-05-25T11:48:59.753Z,20.1
2018-05-25T11:49:59.706Z,20.1
2018-05-25T11:50:59.606Z,20.09
2018-05-25T11:51:59.484Z,20.1
2018-05-25T11:52:59.527Z,20.1
2018-05-25T11:53:59.725Z,20.1
2018-05-25T11:54:59.687Z,20.09
2018-05-25T11:55:59.463Z,20.1
2018-05-25T11:56:59.713Z,20.08
2018-05-25T11:57:59.579Z,20.1
2018-05-25T11:58:59.747Z,20.1
2018-05-25T11:59:59.703Z,20.09
2018-05-25T12:00:59.529Z,20.1
2018-05-25T12:01:59.446Z,20.1
2018-05-25T12:02:59.604Z,20.08
2018-05-25T12:03:59.472Z,20.09
2018-05-25T12:04:59.704Z,20.09
2018-05-25T12:05:59.464Z,20.08
2018-05-25T12:06:59.523Z,20.09
2018-05-25T12:07:59.635Z,20.09
2018-05-25T12:08:59.659Z,20.08
2018-05-25T12:09:59.592Z,20.08
2018-05-25T12:10:59.461Z,20.09
2018-05-25T12:11:59.538Z,20.09
2018-05-25T12:12:59.519Z,20.08
2018-05-25T12:13:59.841Z,20.09
2018-05-25T12:14:59.576Z,20.09
2018-05-25T12:15:59.667Z,20.09
2018-05-25T12:16:59.646Z,20.08
2018-05-25T12:17:59.530Z,20.07
2018-05-25T12:18:59.628Z,20.08
2018-05-25T12:19:59.744Z,20.08
2018-05-25T12:20:59.533Z,20.08
2018-05-25T12:21:59.555Z,20.08
2018-05-25T12:22:59.663Z,20.08
2018-05-25T12:23:59.586Z,20.1
2018-05-25T12:24:59.608Z,20.12
2018-05-25T12:25:59.641Z,20.11
2018-05-25T12:26:59.530Z,20.13
2018-05-25T12:27:59.639Z,20.13
2018-05-25T12:28:59.691Z,20.17
2018-05-25T12:29:59.573Z,20.16
2018-05-25T12:30:59.568Z,20.19
2018-05-25T12:31:59.395Z,20.19
2018-05-25T12:32:59.644Z,20.19
2018-05-25T12:33:59.623Z,20.19
2018-05-25T12:34:59.600Z,20.2
2018-05-25T12:35:59.613Z,20.21
2018-05-25T12:36:59.503Z,20.2
2018-05-25T12:37:59.675Z,20.22
2018-05-25T12:38:59.662Z,20.21
2018-05-25T12:39:59.651Z,20.23
2018-05-25T12:40:59.524Z,20.25
2018-05-25T12:41:59.678Z,20.23
2018-05-25T12:42:59.503Z,20.24
2018-05-25T12:43:59.616Z,20.25
2018-05-25T12:44:59.615Z,20.23
2018-05-25T12:45:59.638Z,20.25
2018-05-25T12:46:59.621Z,20.27
2018-05-25T12:47:59.729Z,20.26
2018-05-25T12:48:59.652Z,20.27
2018-05-25T12:49:59.506Z,20.27
2018-05-25T12:50:59.659Z,20.28
2018-05-25T12:51:59.574Z,20.31
2018-05-25T12:52:59.519Z,20.32
2018-05-25T12:53:59.701Z,20.33
2018-05-25T12:54:59.617Z,20.35
2018-05-25T12:55:59.533Z,20.35